sensor_id;sensor_type;location;lat;lon;timestamp;pressure;altitude;pressure_sealevel;temperature;humidity
48015;BME280;33780;51.034;7.120;2023-06-14T00:01:09;100489.97;;;21.09;41.79
48015;BME280;33780;51.034;7.120;2023-06-14T00:03:34;100488.94;;;21.03;41.75
48015;BME280;33780;51.034;7.120;2023-06-14T00:06:00;100491.19;;;21.00;42.17
48015;BME280;33780;51.034;7.120;2023-06-14T00:08:25;100493.91;;;20.93;41.90
48015;BME280;33780;51.034;7.120;2023-06-14T00:10:50;100492.66;;;20.89;42.24
48015;BME280;33780;51.034;7.120;2023-06-14T00:13:16;100489.72;;;20.84;42.24
48015;BME280;33780;51.034;7.120;2023-06-14T00:15:41;100487.19;;;20.83;42.18
48015;BME280;33780;51.034;7.120;2023-06-14T00:18:07;100493.00;;;20.79;42.15
48015;BME280;33780;51.034;7.120;2023-06-14T00:20:34;100507.88;;;20.77;42.03
48015;BME280;33780;51.034;7.120;2023-06-14T00:23:00;100510.16;;;20.73;42.32
48015;BME280;33780;51.034;7.120;2023-06-14T00:25:26;100505.53;;;20.67;42.59
48015;BME280;33780;51.034;7.120;2023-06-14T00:27:52;100509.69;;;20.63;42.67
48015;BME280;33780;51.034;7.120;2023-06-14T00:30:18;100510.31;;;20.59;42.77
48015;BME280;33780;51.034;7.120;2023-06-14T00:32:44;100510.50;;;20.57;42.99
48015;BME280;33780;51.034;7.120;2023-06-14T00:35:10;100509.22;;;20.53;42.63
48015;BME280;33780;51.034;7.120;2023-06-14T00:37:36;100511.31;;;20.51;42.77
48015;BME280;33780;51.034;7.120;2023-06-14T00:40:02;100517.34;;;20.46;42.91
48015;BME280;33780;51.034;7.120;2023-06-14T00:42:29;100519.63;;;20.43;43.22
48015;BME280;33780;51.034;7.120;2023-06-14T00:44:54;100520.41;;;20.37;42.96
48015;BME280;33780;51.034;7.120;2023-06-14T00:47:20;100525.41;;;20.33;43.23
48015;BME280;33780;51.034;7.120;2023-06-14T00:49:46;100526.00;;;20.29;43.24
48015;BME280;33780;51.034;7.120;2023-06-14T00:52:13;100526.38;;;20.26;43.52
48015;BME280;33780;51.034;7.120;2023-06-14T00:54:40;100525.13;;;20.21;43.78
48015;BME280;33780;51.034;7.120;2023-06-14T00:57:06;100531.16;;;20.17;43.67
48015;BME280;33780;51.034;7.120;2023-06-14T00:59:32;100526.31;;;20.12;43.99
48015;BME280;33780;51.034;7.120;2023-06-14T01:01:58;100533.16;;;20.08;43.84
48015;BME280;33780;51.034;7.120;2023-06-14T01:04:23;100530.84;;;20.05;43.36
48015;BME280;33780;51.034;7.120;2023-06-14T01:14:54;100533.44;;;19.85;44.20
48015;BME280;33780;51.034;7.120;2023-06-14T01:17:21;100536.75;;;19.81;44.60
48015;BME280;33780;51.034;7.120;2023-06-14T01:19:48;100532.94;;;19.75;44.65
48015;BME280;33780;51.034;7.120;2023-06-14T01:22:14;100537.91;;;19.72;44.38
48015;BME280;33780;51.034;7.120;2023-06-14T01:24:39;100545.59;;;19.68;44.70
48015;BME280;33780;51.034;7.120;2023-06-14T01:27:10;100534.50;;;19.63;44.62
48015;BME280;33780;51.034;7.120;2023-06-14T01:29:36;100542.19;;;19.59;45.13
48015;BME280;33780;51.034;7.120;2023-06-14T01:32:02;100532.56;;;19.57;44.83
48015;BME280;33780;51.034;7.120;2023-06-14T01:34:28;100535.44;;;19.55;44.81
48015;BME280;33780;51.034;7.120;2023-06-14T01:36:54;100536.84;;;19.51;44.84
48015;BME280;33780;51.034;7.120;2023-06-14T01:39:23;100531.81;;;19.48;44.96
48015;BME280;33780;51.034;7.120;2023-06-14T01:41:49;100535.97;;;19.44;45.22
48015;BME280;33780;51.034;7.120;2023-06-14T01:44:20;100538.44;;;19.39;45.17
48015;BME280;33780;51.034;7.120;2023-06-14T01:46:46;100536.06;;;19.36;45.64
48015;BME280;33780;51.034;7.120;2023-06-14T01:49:12;100541.88;;;19.33;44.95
48015;BME280;33780;51.034;7.120;2023-06-14T01:51:37;100540.41;;;19.30;45.26
48015;BME280;33780;51.034;7.120;2023-06-14T01:54:03;100539.13;;;19.26;45.26
48015;BME280;33780;51.034;7.120;2023-06-14T01:56:28;100542.03;;;19.25;45.02
48015;BME280;33780;51.034;7.120;2023-06-14T01:58:53;100543.25;;;19.22;45.43
48015;BME280;33780;51.034;7.120;2023-06-14T02:01:19;100536.50;;;19.18;45.51
48015;BME280;33780;51.034;7.120;2023-06-14T02:03:47;100536.25;;;19.13;45.54
48015;BME280;33780;51.034;7.120;2023-06-14T02:06:13;100533.94;;;19.10;45.63
48015;BME280;33780;51.034;7.120;2023-06-14T02:08:38;100533.28;;;19.08;45.31
48015;BME280;33780;51.034;7.120;2023-06-14T02:11:04;100536.19;;;19.07;45.49
48015;BME280;33780;51.034;7.120;2023-06-14T02:13:29;100544.88;;;19.02;45.90
48015;BME280;33780;51.034;7.120;2023-06-14T02:15:54;100529.38;;;18.96;45.93
48015;BME280;33780;51.034;7.120;2023-06-14T02:18:20;100538.94;;;18.92;45.69
48015;BME280;33780;51.034;7.120;2023-06-14T02:20:46;100541.84;;;18.90;45.88
48015;BME280;33780;51.034;7.120;2023-06-14T02:23:11;100544.09;;;18.87;46.02
48015;BME280;33780;51.034;7.120;2023-06-14T02:25:37;100544.44;;;18.84;45.91
48015;BME280;33780;51.034;7.120;2023-06-14T02:28:02;100542.13;;;18.81;45.82
48015;BME280;33780;51.034;7.120;2023-06-14T02:30:28;100546.25;;;18.77;45.99
48015;BME280;33780;51.034;7.120;2023-06-14T02:32:53;100546.63;;;18.74;46.07
48015;BME280;33780;51.034;7.120;2023-06-14T02:35:18;100545.34;;;18.69;46.10
48015;BME280;33780;51.034;7.120;2023-06-14T02:37:45;100547.56;;;18.66;46.21
48015;BME280;33780;51.034;7.120;2023-06-14T02:40:11;100547.75;;;18.64;46.10
48015;BME280;33780;51.034;7.120;2023-06-14T02:42:36;100549.78;;;18.62;46.06
48015;BME280;33780;51.034;7.120;2023-06-14T02:45:02;100546.59;;;18.59;46.20
48015;BME280;33780;51.034;7.120;2023-06-14T02:47:29;100545.31;;;18.55;45.92
48015;BME280;33780;51.034;7.120;2023-06-14T02:49:55;100552.13;;;18.51;46.55
48015;BME280;33780;51.034;7.120;2023-06-14T02:52:20;100553.53;;;18.47;46.42
48015;BME280;33780;51.034;7.120;2023-06-14T02:54:45;100550.34;;;18.43;46.64
48015;BME280;33780;51.034;7.120;2023-06-14T02:57:12;100548.22;;;18.38;46.90
48015;BME280;33780;51.034;7.120;2023-06-14T02:59:37;100564.66;;;18.37;46.82
48015;BME280;33780;51.034;7.120;2023-06-14T03:02:03;100560.44;;;18.34;46.62
48015;BME280;33780;51.034;7.120;2023-06-14T03:04:28;100555.22;;;18.33;46.60
48015;BME280;33780;51.034;7.120;2023-06-14T03:06:54;100565.22;;;18.32;46.49
48015;BME280;33780;51.034;7.120;2023-06-14T03:09:19;100571.66;;;18.31;46.81
48015;BME280;33780;51.034;7.120;2023-06-14T03:11:45;100574.91;;;18.27;47.01
48015;BME280;33780;51.034;7.120;2023-06-14T03:14:10;100565.84;;;18.20;47.01
48015;BME280;33780;51.034;7.120;2023-06-14T03:16:36;100576.03;;;18.18;46.78
48015;BME280;33780;51.034;7.120;2023-06-14T03:19:02;100579.97;;;18.15;46.56
48015;BME280;33780;51.034;7.120;2023-06-14T03:21:27;100574.88;;;18.12;46.56
48015;BME280;33780;51.034;7.120;2023-06-14T03:23:53;100572.53;;;18.09;46.93
48015;BME280;33780;51.034;7.120;2023-06-14T03:26:19;100578.53;;;18.04;46.89
48015;BME280;33780;51.034;7.120;2023-06-14T03:28:47;100576.38;;;18.00;46.82
48015;BME280;33780;51.034;7.120;2023-06-14T03:31:14;100574.88;;;17.97;46.86
48015;BME280;33780;51.034;7.120;2023-06-14T03:33:41;100586.72;;;17.96;46.84
48015;BME280;33780;51.034;7.120;2023-06-14T03:36:06;100585.56;;;17.91;47.12
48015;BME280;33780;51.034;7.120;2023-06-14T03:38:32;100587.63;;;17.89;47.33
48015;BME280;33780;51.034;7.120;2023-06-14T03:40:57;100588.00;;;17.86;47.17
48015;BME280;33780;51.034;7.120;2023-06-14T03:43:22;100591.06;;;17.83;47.50
48015;BME280;33780;51.034;7.120;2023-06-14T03:45:48;100593.13;;;17.80;47.44
48015;BME280;33780;51.034;7.120;2023-06-14T03:48:13;100594.34;;;17.78;47.37
48015;BME280;33780;51.034;7.120;2023-06-14T03:50:38;100591.97;;;17.75;47.44
48015;BME280;33780;51.034;7.120;2023-06-14T03:53:04;100603.16;;;17.72;47.53
48015;BME280;33780;51.034;7.120;2023-06-14T03:55:30;100603.53;;;17.69;47.73
48015;BME280;33780;51.034;7.120;2023-06-14T03:57:58;100603.69;;;17.67;47.48
48015;BME280;33780;51.034;7.120;2023-06-14T04:00:24;100610.13;;;17.66;47.76
48015;BME280;33780;51.034;7.120;2023-06-14T04:02:49;100608.44;;;17.65;47.77
48015;BME280;33780;51.034;7.120;2023-06-14T04:05:15;100605.06;;;17.63;47.72
48015;BME280;33780;51.034;7.120;2023-06-14T04:07:44;100616.06;;;17.62;47.64
48015;BME280;33780;51.034;7.120;2023-06-14T04:10:11;100609.81;;;17.61;48.03
48015;BME280;33780;51.034;7.120;2023-06-14T04:12:37;100625.22;;;17.61;48.12
48015;BME280;33780;51.034;7.120;2023-06-14T04:15:02;100618.47;;;17.57;48.18
48015;BME280;33780;51.034;7.120;2023-06-14T04:17:30;100621.34;;;17.55;48.32
48015;BME280;33780;51.034;7.120;2023-06-14T04:19:57;100635.06;;;17.53;48.29
48015;BME280;33780;51.034;7.120;2023-06-14T04:22:25;100633.56;;;17.51;48.26
48015;BME280;33780;51.034;7.120;2023-06-14T04:24:54;100636.25;;;17.51;48.54
48015;BME280;33780;51.034;7.120;2023-06-14T04:27:21;100635.41;;;17.50;48.06
48015;BME280;33780;51.034;7.120;2023-06-14T04:29:54;100637.09;;;17.51;48.38
48015;BME280;33780;51.034;7.120;2023-06-14T04:32:25;100644.38;;;17.51;48.62
48015;BME280;33780;51.034;7.120;2023-06-14T04:34:54;100645.41;;;17.50;48.39
48015;BME280;33780;51.034;7.120;2023-06-14T04:37:20;100646.44;;;17.49;48.67
48015;BME280;33780;51.034;7.120;2023-06-14T04:39:46;100646.44;;;17.49;48.65
48015;BME280;33780;51.034;7.120;2023-06-14T04:42:12;100655.56;;;17.48;49.00
48015;BME280;33780;51.034;7.120;2023-06-14T04:44:40;100662.84;;;17.47;48.98
48015;BME280;33780;51.034;7.120;2023-06-14T04:47:06;100654.72;;;17.47;48.92
48015;BME280;33780;51.034;7.120;2023-06-14T04:49:32;100661.81;;;17.48;48.69
48015;BME280;33780;51.034;7.120;2023-06-14T04:51:57;100662.47;;;17.50;48.53
48015;BME280;33780;51.034;7.120;2023-06-14T04:54:24;100659.59;;;17.52;48.72
48015;BME280;33780;51.034;7.120;2023-06-14T04:56:52;100668.38;;;17.54;48.89
48015;BME280;33780;51.034;7.120;2023-06-14T04:59:20;100669.22;;;17.55;48.79
48015;BME280;33780;51.034;7.120;2023-06-14T05:01:48;100667.81;;;17.59;48.77
48015;BME280;33780;51.034;7.120;2023-06-14T05:04:14;100674.78;;;17.61;48.96
48015;BME280;33780;51.034;7.120;2023-06-14T05:06:41;100669.00;;;17.64;49.29
48015;BME280;33780;51.034;7.120;2023-06-14T05:09:06;100674.22;;;17.66;49.04
48015;BME280;33780;51.034;7.120;2023-06-14T05:11:32;100670.50;;;17.67;49.43
48015;BME280;33780;51.034;7.120;2023-06-14T05:13:57;100671.00;;;17.70;49.06
48015;BME280;33780;51.034;7.120;2023-06-14T05:16:23;100669.81;;;17.73;49.30
48015;BME280;33780;51.034;7.120;2023-06-14T05:18:50;100675.69;;;17.76;49.18
48015;BME280;33780;51.034;7.120;2023-06-14T05:21:16;100674.34;;;17.80;49.05
48015;BME280;33780;51.034;7.120;2023-06-14T05:23:43;100669.41;;;17.84;49.56
48015;BME280;33780;51.034;7.120;2023-06-14T05:26:10;100669.03;;;17.87;49.43
48015;BME280;33780;51.034;7.120;2023-06-14T05:28:35;100676.78;;;17.90;49.27
48015;BME280;33780;51.034;7.120;2023-06-14T05:31:01;100680.81;;;17.94;49.46
48015;BME280;33780;51.034;7.120;2023-06-14T05:33:26;100673.38;;;17.96;49.79
48015;BME280;33780;51.034;7.120;2023-06-14T05:35:51;100675.53;;;18.01;49.67
48015;BME280;33780;51.034;7.120;2023-06-14T05:38:17;100679.38;;;18.06;49.54
48015;BME280;33780;51.034;7.120;2023-06-14T05:40:42;100673.41;;;18.11;49.35
48015;BME280;33780;51.034;7.120;2023-06-14T05:43:10;100674.75;;;18.15;49.50
48015;BME280;33780;51.034;7.120;2023-06-14T05:45:35;100671.50;;;18.20;49.54
48015;BME280;33780;51.034;7.120;2023-06-14T05:48:00;100673.47;;;18.26;49.44
48015;BME280;33780;51.034;7.120;2023-06-14T05:50:26;100675.63;;;18.30;49.32
48015;BME280;33780;51.034;7.120;2023-06-14T05:52:51;100677.63;;;18.36;49.37
48015;BME280;33780;51.034;7.120;2023-06-14T05:55:20;100684.16;;;18.42;49.11
48015;BME280;33780;51.034;7.120;2023-06-14T05:57:45;100679.88;;;18.48;48.87
48015;BME280;33780;51.034;7.120;2023-06-14T06:00:11;100682.69;;;18.54;48.55
48015;BME280;33780;51.034;7.120;2023-06-14T06:02:39;100679.88;;;18.62;48.23
48015;BME280;33780;51.034;7.120;2023-06-14T06:05:05;100685.47;;;18.69;47.80
48015;BME280;33780;51.034;7.120;2023-06-14T06:07:31;100688.91;;;18.78;47.81
48015;BME280;33780;51.034;7.120;2023-06-14T06:09:56;100685.28;;;18.85;47.76
48015;BME280;33780;51.034;7.120;2023-06-14T06:12:21;100679.75;;;18.93;47.58
48015;BME280;33780;51.034;7.120;2023-06-14T06:14:47;100685.06;;;19.01;47.62
48015;BME280;33780;51.034;7.120;2023-06-14T06:17:14;100682.28;;;19.10;47.67
48015;BME280;33780;51.034;7.120;2023-06-14T06:19:39;100684.25;;;19.16;47.22
48015;BME280;33780;51.034;7.120;2023-06-14T06:22:05;100687.06;;;19.22;46.96
48015;BME280;33780;51.034;7.120;2023-06-14T06:24:31;100682.53;;;19.29;46.61
48015;BME280;33780;51.034;7.120;2023-06-14T06:26:57;100688.88;;;19.37;46.69
48015;BME280;33780;51.034;7.120;2023-06-14T06:29:22;100692.72;;;19.42;46.47
48015;BME280;33780;51.034;7.120;2023-06-14T06:31:47;100698.44;;;19.47;46.09
48015;BME280;33780;51.034;7.120;2023-06-14T06:34:12;100700.75;;;19.50;45.62
48015;BME280;33780;51.034;7.120;2023-06-14T06:36:38;100699.00;;;19.57;45.53
48015;BME280;33780;51.034;7.120;2023-06-14T06:39:03;100700.97;;;19.64;45.80
48015;BME280;33780;51.034;7.120;2023-06-14T06:41:36;100702.06;;;19.69;45.51
48015;BME280;33780;51.034;7.120;2023-06-14T06:44:02;100707.56;;;19.76;45.51
48015;BME280;33780;51.034;7.120;2023-06-14T06:46:27;100716.81;;;19.81;45.49
48015;BME280;33780;51.034;7.120;2023-06-14T06:48:56;100709.78;;;19.87;44.33
48015;BME280;33780;51.034;7.120;2023-06-14T06:51:21;100711.91;;;19.91;44.42
48015;BME280;33780;51.034;7.120;2023-06-14T06:53:54;100722.22;;;19.96;44.04
48015;BME280;33780;51.034;7.120;2023-06-14T06:56:20;100727.06;;;20.01;41.63
48015;BME280;33780;51.034;7.120;2023-06-14T06:58:49;100725.81;;;20.03;42.00
48015;BME280;33780;51.034;7.120;2023-06-14T07:01:15;100726.28;;;20.07;42.47
48015;BME280;33780;51.034;7.120;2023-06-14T07:03:41;100727.41;;;20.12;42.44
48015;BME280;33780;51.034;7.120;2023-06-14T07:06:06;100724.94;;;20.17;42.65
48015;BME280;33780;51.034;7.120;2023-06-14T07:08:31;100735.84;;;20.24;43.19
48015;BME280;33780;51.034;7.120;2023-06-14T07:10:57;100736.78;;;20.31;42.96
48015;BME280;33780;51.034;7.120;2023-06-14T07:13:22;100734.31;;;20.36;42.44
48015;BME280;33780;51.034;7.120;2023-06-14T07:15:47;100735.78;;;20.39;42.05
48015;BME280;33780;51.034;7.120;2023-06-14T07:18:12;100730.44;;;20.45;42.60
48015;BME280;33780;51.034;7.120;2023-06-14T07:20:38;100730.50;;;20.52;41.69
48015;BME280;33780;51.034;7.120;2023-06-14T07:23:03;100728.88;;;20.58;41.93
48015;BME280;33780;51.034;7.120;2023-06-14T07:25:29;100735.41;;;20.63;41.85
48015;BME280;33780;51.034;7.120;2023-06-14T07:27:54;100722.28;;;20.67;40.77
48015;BME280;33780;51.034;7.120;2023-06-14T07:30:20;100728.34;;;20.69;39.10
48015;BME280;33780;51.034;7.120;2023-06-14T07:32:51;100725.88;;;20.74;39.68
48015;BME280;33780;51.034;7.120;2023-06-14T07:35:19;100735.94;;;20.80;40.02
48015;BME280;33780;51.034;7.120;2023-06-14T07:37:45;100730.97;;;20.84;39.35
48015;BME280;33780;51.034;7.120;2023-06-14T07:40:12;100731.22;;;20.89;39.75
48015;BME280;33780;51.034;7.120;2023-06-14T07:42:38;100728.72;;;20.94;39.67
48015;BME280;33780;51.034;7.120;2023-06-14T07:45:04;100726.25;;;20.99;39.50
48015;BME280;33780;51.034;7.120;2023-06-14T07:47:29;100727.75;;;21.01;39.35
48015;BME280;33780;51.034;7.120;2023-06-14T07:49:55;100724.41;;;21.06;39.19
48015;BME280;33780;51.034;7.120;2023-06-14T07:52:20;100732.19;;;21.09;38.53
48015;BME280;33780;51.034;7.120;2023-06-14T07:54:45;100728.84;;;21.13;38.30
48015;BME280;33780;51.034;7.120;2023-06-14T07:57:14;100724.69;;;21.18;37.65
48015;BME280;33780;51.034;7.120;2023-06-14T07:59:39;100727.03;;;21.21;37.21
48015;BME280;33780;51.034;7.120;2023-06-14T08:04:33;100720.38;;;21.30;37.46
48015;BME280;33780;51.034;7.120;2023-06-14T08:06:59;100726.91;;;21.35;37.36
48015;BME280;33780;51.034;7.120;2023-06-14T08:09:25;100722.34;;;21.42;37.66
48015;BME280;33780;51.034;7.120;2023-06-14T08:11:50;100717.13;;;21.48;37.35
48015;BME280;33780;51.034;7.120;2023-06-14T08:14:15;100722.16;;;21.51;34.63
48015;BME280;33780;51.034;7.120;2023-06-14T08:16:41;100714.41;;;21.54;35.75
48015;BME280;33780;51.034;7.120;2023-06-14T08:19:06;100723.25;;;21.56;35.86
48015;BME280;33780;51.034;7.120;2023-06-14T08:21:32;100712.78;;;21.60;36.55
48015;BME280;33780;51.034;7.120;2023-06-14T08:23:58;100713.00;;;21.65;36.53
48015;BME280;33780;51.034;7.120;2023-06-14T08:26:24;100712.38;;;21.69;35.71
48015;BME280;33780;51.034;7.120;2023-06-14T08:28:53;100719.75;;;21.76;36.03
48015;BME280;33780;51.034;7.120;2023-06-14T08:31:20;100717.25;;;21.81;35.22
48015;BME280;33780;51.034;7.120;2023-06-14T08:33:45;100725.84;;;21.84;35.54
48015;BME280;33780;51.034;7.120;2023-06-14T08:36:10;100729.81;;;21.88;36.20
48015;BME280;33780;51.034;7.120;2023-06-14T08:38:37;100717.50;;;21.92;36.35
48015;BME280;33780;51.034;7.120;2023-06-14T08:41:04;100725.25;;;21.95;34.85
48015;BME280;33780;51.034;7.120;2023-06-14T08:43:31;100720.22;;;21.99;35.57
48015;BME280;33780;51.034;7.120;2023-06-14T08:46:02;100720.00;;;22.00;35.32
48015;BME280;33780;51.034;7.120;2023-06-14T08:48:28;100715.19;;;22.02;35.50
48015;BME280;33780;51.034;7.120;2023-06-14T08:50:55;100712.72;;;22.08;35.86
48015;BME280;33780;51.034;7.120;2023-06-14T08:53:27;100721.34;;;22.11;36.54
48015;BME280;33780;51.034;7.120;2023-06-14T08:55:54;100709.59;;;22.17;35.52
48015;BME280;33780;51.034;7.120;2023-06-14T08:58:20;100718.41;;;22.19;34.93
48015;BME280;33780;51.034;7.120;2023-06-14T09:00:49;100710.63;;;22.23;35.21
48015;BME280;33780;51.034;7.120;2023-06-14T09:03:17;100714.84;;;22.25;35.80
48015;BME280;33780;51.034;7.120;2023-06-14T09:05:43;100720.94;;;22.27;33.74
48015;BME280;33780;51.034;7.120;2023-06-14T09:08:08;100711.09;;;22.26;34.00
48015;BME280;33780;51.034;7.120;2023-06-14T09:10:35;100707.50;;;22.26;34.03
48015;BME280;33780;51.034;7.120;2023-06-14T09:13:02;100722.63;;;22.28;34.97
48015;BME280;33780;51.034;7.120;2023-06-14T09:15:28;100711.28;;;22.31;35.28
48015;BME280;33780;51.034;7.120;2023-06-14T09:17:54;100725.13;;;22.30;34.11
48015;BME280;33780;51.034;7.120;2023-06-14T09:20:20;100709.41;;;22.32;34.39
48015;BME280;33780;51.034;7.120;2023-06-14T09:22:46;100718.22;;;22.34;34.80
48015;BME280;33780;51.034;7.120;2023-06-14T09:25:11;100711.50;;;22.37;35.07
48015;BME280;33780;51.034;7.120;2023-06-14T09:27:41;100699.31;;;22.39;35.31
48015;BME280;33780;51.034;7.120;2023-06-14T09:30:09;100701.41;;;22.44;34.57
48015;BME280;33780;51.034;7.120;2023-06-14T09:32:38;100710.66;;;22.49;35.06
48015;BME280;33780;51.034;7.120;2023-06-14T09:35:06;100704.16;;;22.50;34.69
48015;BME280;33780;51.034;7.120;2023-06-14T09:37:32;100714.88;;;22.52;35.09
48015;BME280;33780;51.034;7.120;2023-06-14T09:39:58;100721.16;;;22.59;36.10
48015;BME280;33780;51.034;7.120;2023-06-14T09:42:24;100722.22;;;22.65;35.64
48015;BME280;33780;51.034;7.120;2023-06-14T09:44:54;100728.91;;;22.69;35.08
48015;BME280;33780;51.034;7.120;2023-06-14T09:47:20;100721.56;;;22.69;34.58
48015;BME280;33780;51.034;7.120;2023-06-14T09:49:46;100724.94;;;22.71;35.13
48015;BME280;33780;51.034;7.120;2023-06-14T09:52:15;100719.47;;;22.71;35.50
48015;BME280;33780;51.034;7.120;2023-06-14T09:54:42;100722.59;;;22.75;35.60
48015;BME280;33780;51.034;7.120;2023-06-14T09:57:10;100723.03;;;22.78;35.32
48015;BME280;33780;51.034;7.120;2023-06-14T09:59:40;100726.22;;;22.82;35.23
48015;BME280;33780;51.034;7.120;2023-06-14T10:05:02;100724.94;;;22.91;35.50
48015;BME280;33780;51.034;7.120;2023-06-14T10:07:32;100729.13;;;22.94;35.01
48015;BME280;33780;51.034;7.120;2023-06-14T10:10:00;100734.81;;;22.99;36.05
48015;BME280;33780;51.034;7.120;2023-06-14T10:12:26;100715.88;;;23.04;34.76
48015;BME280;33780;51.034;7.120;2023-06-14T10:14:52;100726.38;;;23.07;34.00
48015;BME280;33780;51.034;7.120;2023-06-14T10:20:39;100726.78;;;23.17;34.72
48015;BME280;33780;51.034;7.120;2023-06-14T10:23:17;100725.09;;;23.23;34.36
48015;BME280;33780;51.034;7.120;2023-06-14T10:25:43;100723.59;;;23.27;34.94
48015;BME280;33780;51.034;7.120;2023-06-14T10:30:36;100707.00;;;23.28;33.58
48015;BME280;33780;51.034;7.120;2023-06-14T10:33:06;100716.25;;;23.27;33.04
48015;BME280;33780;51.034;7.120;2023-06-14T10:35:32;100712.22;;;23.30;34.15
48015;BME280;33780;51.034;7.120;2023-06-14T10:38:08;100714.53;;;23.33;33.83
48015;BME280;33780;51.034;7.120;2023-06-14T10:40:34;100718.31;;;23.32;33.82
48015;BME280;33780;51.034;7.120;2023-06-14T10:43:01;100715.38;;;23.33;33.89
48015;BME280;33780;51.034;7.120;2023-06-14T10:46:17;100721.25;;;23.37;34.34
48015;BME280;33780;51.034;7.120;2023-06-14T10:48:43;100720.81;;;23.40;34.62
48015;BME280;33780;51.034;7.120;2023-06-14T10:51:16;100718.94;;;23.40;34.35
48015;BME280;33780;51.034;7.120;2023-06-14T10:53:46;100708.41;;;23.44;35.02
48015;BME280;33780;51.034;7.120;2023-06-14T10:58:54;100707.31;;;23.51;35.96
48015;BME280;33780;51.034;7.120;2023-06-14T11:01:31;100704.81;;;23.57;35.76
48015;BME280;33780;51.034;7.120;2023-06-14T11:04:06;100702.88;;;23.64;35.60
48015;BME280;33780;51.034;7.120;2023-06-14T11:09:27;100705.94;;;23.80;35.66
48015;BME280;33780;51.034;7.120;2023-06-14T11:12:01;100713.25;;;23.87;35.31
48015;BME280;33780;51.034;7.120;2023-06-14T11:14:30;100712.63;;;23.91;35.33
48015;BME280;33780;51.034;7.120;2023-06-14T11:16:56;100718.72;;;23.93;34.78
48015;BME280;33780;51.034;7.120;2023-06-14T11:19:21;100719.50;;;24.00;34.98
48015;BME280;33780;51.034;7.120;2023-06-14T11:21:48;100708.34;;;24.02;33.97
48015;BME280;33780;51.034;7.120;2023-06-14T11:24:13;100707.28;;;24.03;33.72
48015;BME280;33780;51.034;7.120;2023-06-14T11:26:40;100705.16;;;24.05;33.73
48015;BME280;33780;51.034;7.120;2023-06-14T11:29:05;100707.03;;;24.11;34.94
48015;BME280;33780;51.034;7.120;2023-06-14T11:31:30;100706.97;;;24.18;34.73
48015;BME280;33780;51.034;7.120;2023-06-14T11:33:57;100702.09;;;24.26;34.90
48015;BME280;33780;51.034;7.120;2023-06-14T11:36:26;100694.91;;;24.32;34.21
48015;BME280;33780;51.034;7.120;2023-06-14T11:39:07;100689.38;;;24.38;34.23
48015;BME280;33780;51.034;7.120;2023-06-14T11:41:43;100688.94;;;24.41;33.77
48015;BME280;33780;51.034;7.120;2023-06-14T11:44:09;100699.88;;;24.41;33.02
48015;BME280;33780;51.034;7.120;2023-06-14T11:46:35;100703.88;;;24.46;31.81
48015;BME280;33780;51.034;7.120;2023-06-14T11:49:02;100700.06;;;24.47;31.52
48015;BME280;33780;51.034;7.120;2023-06-14T11:51:31;100691.78;;;24.53;32.25
48015;BME280;33780;51.034;7.120;2023-06-14T11:53:56;100707.28;;;24.59;32.75
48015;BME280;33780;51.034;7.120;2023-06-14T11:56:23;100701.41;;;24.62;32.00
48015;BME280;33780;51.034;7.120;2023-06-14T11:58:48;100697.16;;;24.66;31.96
48015;BME280;33780;51.034;7.120;2023-06-14T12:01:16;100694.56;;;24.71;31.47
48015;BME280;33780;51.034;7.120;2023-06-14T12:03:47;100691.78;;;24.78;32.17
48015;BME280;33780;51.034;7.120;2023-06-14T12:06:13;100683.50;;;24.85;32.36
48015;BME280;33780;51.034;7.120;2023-06-14T12:08:38;100698.16;;;24.90;31.92
48015;BME280;33780;51.034;7.120;2023-06-14T12:11:06;100683.59;;;24.96;32.27
48015;BME280;33780;51.034;7.120;2023-06-14T12:13:31;100695.09;;;25.05;32.47
48015;BME280;33780;51.034;7.120;2023-06-14T12:15:56;100683.41;;;25.16;32.91
48015;BME280;33780;51.034;7.120;2023-06-14T12:18:31;100685.81;;;25.24;30.81
48015;BME280;33780;51.034;7.120;2023-06-14T12:20:59;100698.59;;;25.30;32.19
48015;BME280;33780;51.034;7.120;2023-06-14T12:23:44;100688.41;;;25.38;32.36
48015;BME280;33780;51.034;7.120;2023-06-14T12:26:14;100695.94;;;25.42;31.77
48015;BME280;33780;51.034;7.120;2023-06-14T12:28:40;100695.69;;;25.44;30.96
48015;BME280;33780;51.034;7.120;2023-06-14T12:31:07;100689.16;;;25.45;32.07
48015;BME280;33780;51.034;7.120;2023-06-14T12:33:32;100691.19;;;25.49;32.02
48015;BME280;33780;51.034;7.120;2023-06-14T12:35:58;100695.53;;;25.57;32.18
48015;BME280;33780;51.034;7.120;2023-06-14T12:38:24;100698.19;;;25.64;32.03
48015;BME280;33780;51.034;7.120;2023-06-14T12:40:49;100695.41;;;25.70;32.05
48015;BME280;33780;51.034;7.120;2023-06-14T12:43:14;100701.63;;;25.77;32.03
48015;BME280;33780;51.034;7.120;2023-06-14T12:45:39;100693.09;;;25.85;32.36
48015;BME280;33780;51.034;7.120;2023-06-14T12:48:05;100690.00;;;25.94;32.47
48015;BME280;33780;51.034;7.120;2023-06-14T12:50:30;100691.31;;;26.03;32.11
48015;BME280;33780;51.034;7.120;2023-06-14T12:52:55;100699.22;;;26.11;32.89
48015;BME280;33780;51.034;7.120;2023-06-14T12:55:20;100702.09;;;26.04;31.83
48015;BME280;33780;51.034;7.120;2023-06-14T12:57:46;100705.75;;;25.98;31.96
48015;BME280;33780;51.034;7.120;2023-06-14T13:00:11;100698.50;;;26.04;32.40
48015;BME280;33780;51.034;7.120;2023-06-14T13:02:38;100695.41;;;26.12;32.40
48015;BME280;33780;51.034;7.120;2023-06-14T13:05:04;100700.56;;;26.20;32.16
48015;BME280;33780;51.034;7.120;2023-06-14T13:07:29;100701.78;;;26.24;32.87
48015;BME280;33780;51.034;7.120;2023-06-14T13:09:55;100697.81;;;26.20;32.41
48015;BME280;33780;51.034;7.120;2023-06-14T13:12:20;100707.69;;;26.09;31.02